createdAt,value
2023-06-09T00:00:50.421Z,18.65
2023-06-09T00:01:50.416Z,18.65
2023-06-09T00:02:50.509Z,18.65
2023-06-09T00:03:50.612Z,18.65
2023-06-09T00:04:50.698Z,18.65
2023-06-09T00:05:50.786Z,18.65
2023-06-09T00:06:50.792Z,18.65
2023-06-09T00:07:50.849Z,18.65
2023-06-09T00:08:50.989Z,18.64
2023-06-09T00:09:51.042Z,18.64
2023-06-09T00:10:51.121Z,18.64
2023-06-09T00:11:51.207Z,18.64
2023-06-09T00:12:51.251Z,18.64
2023-06-09T00:13:51.373Z,18.64
2023-06-09T00:14:51.436Z,18.64
2023-06-09T00:15:51.546Z,18.64
2023-06-09T00:16:51.622Z,18.64
2023-06-09T00:17:51.737Z,18.64
2023-06-09T00:18:51.735Z,18.62
2023-06-09T00:19:51.889Z,18.59
2023-06-09T00:20:51.944Z,18.58
2023-06-09T00:21:52.022Z,18.58
2023-06-09T00:22:52.109Z,18.57
2023-06-09T00:25:16.531Z,18.49
2023-06-09T00:26:17.604Z,18.43
2023-06-09T00:27:17.715Z,18.37
2023-06-09T00:28:17.731Z,18.36
2023-06-09T00:29:17.817Z,18.33
2023-06-09T00:30:29.567Z,18.31
2023-06-09T00:31:18.084Z,18.27
2023-06-09T00:32:18.073Z,18.24
2023-06-09T00:33:18.113Z,18.24
2023-06-09T00:34:18.180Z,18.22
2023-06-09T00:35:18.290Z,18.19
2023-06-09T00:36:18.377Z,18.21
2023-06-09T00:37:18.480Z,18.22
2023-06-09T00:38:18.539Z,18.21
2023-06-09T01:03:47.243Z,17.18
2023-06-09T01:04:48.189Z,17.20
2023-06-09T01:05:48.310Z,17.18
2023-06-09T01:06:48.331Z,17.18
2023-06-09T01:07:48.442Z,17.15
2023-06-09T01:08:48.517Z,17.13
2023-06-09T01:09:48.560Z,17.11
2023-06-09T01:10:48.652Z,17.07
2023-06-09T01:11:48.724Z,17.06
2023-06-09T01:12:48.830Z,17.04
2023-06-09T01:13:48.915Z,17.03
2023-06-09T01:14:48.997Z,17.00
2023-06-09T01:15:49.042Z,17.00
2023-06-09T01:16:49.264Z,17.00
2023-06-09T01:17:49.226Z,17.03
2023-06-09T01:18:49.348Z,17.00
2023-06-09T01:19:49.350Z,17.04
2023-06-09T01:20:49.459Z,17.07
2023-06-09T01:21:49.499Z,17.11
2023-06-09T01:22:49.611Z,17.11
2023-06-09T01:23:49.780Z,17.11
2023-06-09T01:24:49.768Z,17.11
2023-06-09T01:25:49.847Z,17.11
2023-06-09T01:26:49.948Z,17.10
2023-06-09T01:27:50.055Z,17.11
2023-06-09T01:28:50.139Z,17.13
2023-06-09T01:29:50.183Z,17.14
2023-06-09T01:30:50.323Z,17.15
2023-06-09T01:31:50.393Z,17.17
2023-06-09T01:32:50.468Z,17.20
2023-06-09T01:33:50.535Z,17.23
2023-06-09T01:34:50.604Z,17.26
2023-06-09T01:35:50.651Z,17.29
2023-06-09T01:36:50.752Z,17.32
2023-06-09T01:37:50.837Z,17.35
2023-06-09T01:38:50.998Z,17.36
2023-06-09T01:39:51.008Z,17.40
2023-06-09T01:40:51.106Z,17.41
2023-06-09T01:41:51.191Z,17.41
2023-06-09T01:42:51.290Z,17.40
2023-06-09T01:43:51.396Z,17.40
2023-06-09T01:44:51.461Z,17.38
2023-06-09T01:45:51.513Z,17.38
2023-06-09T01:46:51.597Z,17.38
2023-06-09T01:47:51.692Z,17.38
2023-06-09T01:48:51.809Z,17.38
2023-06-09T01:49:51.824Z,17.38
2023-06-09T01:50:51.929Z,17.36
2023-06-09T01:51:52.016Z,17.40
2023-06-09T01:52:52.105Z,17.40
2023-06-09T01:53:52.202Z,17.41
2023-06-09T01:54:52.303Z,17.43
2023-06-09T01:55:52.312Z,17.44
2023-06-09T01:56:52.408Z,17.46
2023-06-09T01:57:52.489Z,17.48
2023-06-09T01:58:52.620Z,17.47
2023-06-09T01:59:52.660Z,17.48
2023-06-09T02:00:52.765Z,17.48
2023-06-09T02:01:52.909Z,17.48
2023-06-09T02:02:53.048Z,17.48
2023-06-09T02:03:53.058Z,17.44
2023-06-09T02:04:53.128Z,17.43
2023-06-09T02:05:53.183Z,17.40
2023-06-09T02:06:53.269Z,17.40
2023-06-09T02:07:53.361Z,17.41
2023-06-09T02:08:53.473Z,17.41
2023-06-09T02:09:53.522Z,17.41
2023-06-09T02:10:53.608Z,17.43
2023-06-09T02:11:53.704Z,17.43
2023-06-09T02:12:53.836Z,17.43
2023-06-09T02:13:53.945Z,17.44
2023-06-09T02:14:53.968Z,17.44
2023-06-09T02:15:54.030Z,17.41
2023-06-09T02:16:54.087Z,17.40
2023-06-09T02:17:54.246Z,17.35
2023-06-09T02:18:54.353Z,17.33
2023-06-09T02:19:54.335Z,17.32
2023-06-09T02:20:54.437Z,17.32
2023-06-09T02:21:54.496Z,17.30
2023-06-09T02:22:54.610Z,17.30
2023-06-09T02:23:54.759Z,17.30
2023-06-09T02:24:54.747Z,17.32
2023-06-09T02:25:54.844Z,17.32
2023-06-09T02:26:54.940Z,17.33
2023-06-09T02:27:55.041Z,17.33
2023-06-09T02:28:55.145Z,17.30
2023-06-09T02:29:55.194Z,17.30
2023-06-09T02:30:55.317Z,17.28
2023-06-09T02:31:55.502Z,17.28
2023-06-09T02:32:55.519Z,17.26
2023-06-09T02:33:55.555Z,17.25
2023-06-09T02:34:55.638Z,17.25
2023-06-09T02:35:55.682Z,17.26
2023-06-09T02:36:55.782Z,17.25
2023-06-09T02:37:55.849Z,17.25
2023-06-09T02:38:55.923Z,17.25
2023-06-09T02:39:55.988Z,17.20
2023-06-09T02:40:56.054Z,17.20
2023-06-09T02:41:56.124Z,17.17
2023-06-09T02:42:56.184Z,17.17
2023-06-09T02:43:56.308Z,17.17
2023-06-09T02:44:56.351Z,17.15
2023-06-09T02:45:56.474Z,17.17
2023-06-09T02:46:56.554Z,17.15
2023-06-09T02:47:56.654Z,17.17
2023-06-09T02:48:56.691Z,17.17
2023-06-09T02:49:56.747Z,17.15
2023-06-09T02:50:56.845Z,17.15
2023-06-09T02:51:56.904Z,17.13
2023-06-09T02:52:57.054Z,17.13
2023-06-09T02:53:57.130Z,17.11
2023-06-09T02:54:57.184Z,17.08
2023-06-09T02:55:57.248Z,17.04
2023-06-09T02:56:57.378Z,17.00
2023-06-09T02:57:57.453Z,16.99
2023-06-09T02:58:57.503Z,16.96
2023-06-09T02:59:57.571Z,16.93
2023-06-09T03:00:57.667Z,16.90
2023-06-09T03:01:57.736Z,16.88
2023-06-09T03:02:57.922Z,16.89
2023-06-09T03:03:57.995Z,16.88
2023-06-09T03:04:57.978Z,16.86
2023-06-09T03:05:58.064Z,16.83
2023-06-09T03:06:58.182Z,16.80
2023-06-09T03:07:58.246Z,16.78
2023-06-09T03:08:58.360Z,16.74
2023-06-09T03:09:58.409Z,16.73
2023-06-09T03:10:58.458Z,16.70
2023-06-09T03:11:58.559Z,16.68
2023-06-09T03:12:58.644Z,16.67
2023-06-09T03:13:58.756Z,16.68
2023-06-09T03:14:58.819Z,16.68
2023-06-09T03:15:58.918Z,16.68
2023-06-09T03:16:59.026Z,16.65
2023-06-09T03:17:59.131Z,16.62
2023-06-09T03:18:59.178Z,16.60
2023-06-09T03:19:59.265Z,16.58
2023-06-09T03:20:59.320Z,16.53
2023-06-09T03:21:59.420Z,16.52
2023-06-09T03:22:59.517Z,16.49
2023-06-09T03:23:59.646Z,16.45
2023-06-09T03:24:59.668Z,16.44
2023-06-09T03:25:59.779Z,16.41
2023-06-09T03:26:59.847Z,16.40
2023-06-09T03:27:59.951Z,16.37
2023-06-09T03:29:00.027Z,16.35
2023-06-09T03:30:00.104Z,16.34
2023-06-09T03:31:00.276Z,16.33
2023-06-09T03:32:00.294Z,16.30
2023-06-09T03:33:00.404Z,16.27
2023-06-09T03:34:00.460Z,16.30
2023-06-09T03:35:00.574Z,16.27
2023-06-09T03:36:00.619Z,16.30
2023-06-09T03:37:00.656Z,16.27
2023-06-09T03:38:00.771Z,16.30
2023-06-09T03:39:00.867Z,16.27
2023-06-09T03:40:00.951Z,16.27
2023-06-09T03:41:00.990Z,16.26
2023-06-09T03:42:01.096Z,16.26
2023-06-09T03:43:01.156Z,16.30
2023-06-09T03:44:01.282Z,16.31
2023-06-09T03:45:01.331Z,16.33
2023-06-09T03:46:01.426Z,16.35
2023-06-09T03:47:01.520Z,16.35
2023-06-09T03:48:01.645Z,16.37
2023-06-09T03:49:01.677Z,16.38
2023-06-09T03:50:01.713Z,16.40
2023-06-09T03:51:01.854Z,16.41
2023-06-09T03:52:01.895Z,16.40
2023-06-09T03:53:01.998Z,16.44
2023-06-09T03:54:02.083Z,16.44
2023-06-09T03:55:02.156Z,16.44
2023-06-09T03:56:02.226Z,16.45
2023-06-09T03:57:02.316Z,16.45
2023-06-09T03:58:02.403Z,16.49
2023-06-09T03:59:02.531Z,16.49
2023-06-09T04:00:02.605Z,16.52
2023-06-09T04:01:02.668Z,16.53
2023-06-09T04:02:02.778Z,16.53
2023-06-09T04:03:02.901Z,16.53
2023-06-09T04:04:03.001Z,16.52
2023-06-09T04:05:03.034Z,16.49
2023-06-09T04:06:03.078Z,16.45
2023-06-09T04:07:03.651Z,16.44
2023-06-09T04:08:03.237Z,16.42
2023-06-09T04:09:03.383Z,16.42
2023-06-09T04:10:03.382Z,16.41
2023-06-09T04:11:03.503Z,16.41
2023-06-09T04:12:03.535Z,16.40
2023-06-09T04:13:03.636Z,16.41
2023-06-09T04:14:03.745Z,16.40
2023-06-09T04:15:03.758Z,16.38
2023-06-09T04:16:03.859Z,16.40
2023-06-09T04:17:04.009Z,16.40
2023-06-09T04:18:05.630Z,16.40
2023-06-09T04:19:04.078Z,16.41
2023-06-09T04:20:04.224Z,16.42
2023-06-09T04:21:04.217Z,16.42
2023-06-09T04:22:04.320Z,16.44
2023-06-09T04:23:04.379Z,16.45
2023-06-09T04:24:04.519Z,16.45
2023-06-09T04:25:04.540Z,16.50
2023-06-09T04:26:04.635Z,16.50
2023-06-09T04:27:04.758Z,16.50
2023-06-09T04:28:04.818Z,16.52
2023-06-09T04:29:04.907Z,16.49
2023-06-09T04:30:05.227Z,16.49
2023-06-09T04:31:05.031Z,16.45
2023-06-09T04:32:05.146Z,16.48
2023-06-09T04:33:05.346Z,16.48
2023-06-09T04:34:05.340Z,16.49
2023-06-09T04:35:05.409Z,16.49
2023-06-09T04:36:05.559Z,16.49
2023-06-09T04:37:05.645Z,16.48
2023-06-09T04:38:05.677Z,16.42
2023-06-09T04:39:05.730Z,16.38
2023-06-09T04:40:06.067Z,16.35
2023-06-09T04:41:05.899Z,16.31
2023-06-09T04:42:05.976Z,16.26
2023-06-09T04:43:06.117Z,16.25
2023-06-09T04:44:06.178Z,16.25
2023-06-09T04:45:06.227Z,16.25
2023-06-09T04:46:06.338Z,16.25
2023-06-09T04:47:06.398Z,16.25
2023-06-09T04:48:06.539Z,16.27
2023-06-09T04:49:06.611Z,16.27
2023-06-09T04:50:06.887Z,16.27
2023-06-09T04:51:06.714Z,16.31
2023-06-09T04:52:06.810Z,16.30
2023-06-09T04:53:06.905Z,16.27
2023-06-09T04:54:07.021Z,16.27
2023-06-09T04:55:07.285Z,16.25
2023-06-09T04:56:08.977Z,16.25
2023-06-09T04:57:07.199Z,16.23
2023-06-09T04:58:07.301Z,16.22
2023-06-09T04:59:07.369Z,16.18
2023-06-09T05:00:07.577Z,16.15
2023-06-09T05:01:07.585Z,16.12
2023-06-09T05:02:07.669Z,16.09
2023-06-09T05:03:07.700Z,16.09
2023-06-09T05:04:07.808Z,16.07
2023-06-09T05:05:07.930Z,16.09
2023-06-09T05:06:07.902Z,16.09
2023-06-09T05:07:08.033Z,16.09
2023-06-09T05:08:08.084Z,16.11
2023-06-09T05:09:08.148Z,16.09
2023-06-09T05:10:08.451Z,16.11
2023-06-09T05:11:08.273Z,16.12
2023-06-09T05:12:08.375Z,16.14
2023-06-09T05:13:08.432Z,16.12
2023-06-09T05:14:08.549Z,16.12
2023-06-09T05:15:08.613Z,16.12
2023-06-09T05:16:08.708Z,16.11
2023-06-09T05:17:08.735Z,16.12
2023-06-09T05:18:08.856Z,16.11
2023-06-09T05:19:08.928Z,16.12
2023-06-09T05:20:09.218Z,16.12
2023-06-09T05:21:09.033Z,16.12
2023-06-09T05:22:09.174Z,16.11
2023-06-09T05:23:09.242Z,16.11
2023-06-09T05:24:09.371Z,16.12
2023-06-09T05:25:09.403Z,16.12
2023-06-09T05:26:09.494Z,16.12
2023-06-09T05:27:09.538Z,16.11
2023-06-09T05:28:09.653Z,16.11
2023-06-09T05:29:09.729Z,16.11
2023-06-09T05:30:10.134Z,16.07
2023-06-09T05:31:09.960Z,16.07
2023-06-09T05:32:10.009Z,16.07
2023-06-09T05:33:10.182Z,16.09
2023-06-09T05:34:10.158Z,16.06
2023-06-09T05:35:10.189Z,16.04
2023-06-09T05:36:10.276Z,16.04
2023-06-09T05:37:10.381Z,16.03
2023-06-09T05:38:10.515Z,16.03
2023-06-09T05:39:10.552Z,16.04
2023-06-09T05:40:10.707Z,16.01
2023-06-09T05:41:10.684Z,16.03
2023-06-09T05:42:10.791Z,16.03
2023-06-09T05:43:10.778Z,16.03
2023-06-09T05:44:10.972Z,16.03
2023-06-09T05:45:10.908Z,16.01
2023-06-09T06:06:10.691Z,15.21
2023-06-09T06:06:58.773Z,15.21
2023-06-09T06:07:58.770Z,15.23
2023-06-09T06:08:58.738Z,15.26
2023-06-09T06:09:58.809Z,15.28
2023-06-09T06:10:58.931Z,15.35
2023-06-09T06:11:59.080Z,15.38
2023-06-09T06:23:14.082Z,15.13
2023-06-09T06:24:15.184Z,15.13
2023-06-09T06:25:15.126Z,15.19
2023-06-09T06:26:15.189Z,15.23
2023-06-09T06:27:15.255Z,15.27
2023-06-09T06:28:15.477Z,15.36
2023-06-09T06:29:15.446Z,15.41
2023-06-09T06:30:15.536Z,15.45
2023-06-09T06:31:15.660Z,15.51
2023-06-09T06:32:15.706Z,15.56
2023-06-09T06:33:15.808Z,15.59
2023-06-09T06:34:15.877Z,15.64
2023-06-09T06:35:15.984Z,15.68
2023-06-09T06:36:16.113Z,15.72
2023-06-09T06:37:16.098Z,15.75
2023-06-09T06:38:16.276Z,15.81
2023-06-09T06:39:16.308Z,15.85
2023-06-09T06:40:16.371Z,15.88
2023-06-09T06:41:16.493Z,15.92
2023-06-09T06:42:16.569Z,15.96
2023-06-09T06:43:16.682Z,15.97
2023-06-09T06:44:16.793Z,16.00
2023-06-09T06:45:16.856Z,16.03
2023-06-09T06:46:16.925Z,16.06
2023-06-09T06:47:17.109Z,16.09
2023-06-09T06:48:17.089Z,16.12
2023-06-09T06:49:17.202Z,16.16
2023-06-09T06:50:17.211Z,16.18
2023-06-09T06:51:17.268Z,16.20
2023-06-09T06:52:17.462Z,16.23
2023-06-09T06:53:17.477Z,16.26
2023-06-09T06:54:17.575Z,16.26
2023-06-09T06:55:17.623Z,16.30
2023-06-09T06:56:17.684Z,16.33
2023-06-09T06:57:17.775Z,16.35
2023-06-09T06:58:17.897Z,16.35
2023-06-09T06:59:17.967Z,16.37
2023-06-09T07:00:18.157Z,16.40
2023-06-09T07:01:18.241Z,16.41
2023-06-09T07:02:18.242Z,16.44
2023-06-09T07:03:18.331Z,16.44
2023-06-09T07:04:18.472Z,16.48
2023-06-09T07:05:18.567Z,16.49
2023-06-09T07:06:18.611Z,16.49
2023-06-09T07:07:18.631Z,16.49
2023-06-09T07:08:18.746Z,16.52
2023-06-09T07:09:18.922Z,16.52
2023-06-09T07:10:18.893Z,16.53
2023-06-09T07:11:18.907Z,16.53
2023-06-09T07:12:19.082Z,16.56
2023-06-09T07:13:19.200Z,16.58
2023-06-09T07:14:19.202Z,16.58
2023-06-09T07:15:19.301Z,16.58
2023-06-09T07:16:19.391Z,16.62
2023-06-09T07:17:19.441Z,16.63
2023-06-09T07:18:19.635Z,16.65
2023-06-09T07:19:19.684Z,16.68
2023-06-09T07:20:19.651Z,16.70
2023-06-09T07:21:19.714Z,16.71
2023-06-09T07:23:54.837Z,16.70
2023-06-09T07:30:03.028Z,16.49
2023-06-09T07:40:46.464Z,16.49
2023-06-09T08:14:33.573Z,17.08
2023-06-09T08:15:33.567Z,17.13
2023-06-09T08:16:35.510Z,17.17
2023-06-09T08:17:33.892Z,17.26
2023-06-09T08:18:33.828Z,17.32
2023-06-09T08:19:33.872Z,17.43
2023-06-09T08:20:33.965Z,17.51
2023-06-09T08:21:34.075Z,17.59
2023-06-09T08:22:34.138Z,17.67
2023-06-09T08:23:34.270Z,17.71
2023-06-09T08:24:34.319Z,17.79
2023-06-09T08:25:34.707Z,17.87
2023-06-09T08:26:34.542Z,17.92
2023-06-09T08:27:34.614Z,18.00
2023-06-09T08:28:34.765Z,18.04
2023-06-09T08:29:34.795Z,18.09
2023-06-09T08:30:34.860Z,18.15
2023-06-09T08:31:35.018Z,18.21
2023-06-09T08:32:35.126Z,18.25
2023-06-09T08:33:35.240Z,18.31
2023-06-09T08:34:35.217Z,18.36
2023-06-09T08:35:35.304Z,18.39
2023-06-09T08:36:35.415Z,18.44
2023-06-09T08:37:35.688Z,18.47
2023-06-09T08:38:35.568Z,18.52
2023-06-09T08:39:35.671Z,18.57
2023-06-09T08:40:35.695Z,18.59
2023-06-09T08:41:35.846Z,18.64
2023-06-09T08:42:35.872Z,18.67
2023-06-09T08:43:36.015Z,18.72
2023-06-09T08:44:36.049Z,18.74
2023-06-09T08:45:36.199Z,18.77
2023-06-09T08:46:36.255Z,18.79
2023-06-09T08:47:36.347Z,18.83
2023-06-09T08:48:36.504Z,18.84
2023-06-09T08:49:36.472Z,18.86
2023-06-09T08:50:37.475Z,18.90
2023-06-09T08:51:36.670Z,18.90
2023-06-09T08:52:36.750Z,18.92
2023-06-09T08:53:36.830Z,18.95
2023-06-09T08:54:36.908Z,18.98
2023-06-09T08:55:36.973Z,18.99
2023-06-09T08:56:37.081Z,19.01
2023-06-09T08:57:39.863Z,19.02
2023-06-09T08:58:37.260Z,19.05
2023-06-09T08:59:37.329Z,19.06
2023-06-09T09:00:37.424Z,19.08
2023-06-09T09:01:37.822Z,19.10
2023-06-09T09:02:38.665Z,19.11
2023-06-09T09:03:37.767Z,19.13
2023-06-09T09:04:37.742Z,19.13
2023-06-09T09:05:37.829Z,19.14
2023-06-09T09:06:37.906Z,19.15
2023-06-09T09:07:37.973Z,19.17
2023-06-09T09:08:38.058Z,19.20
2023-06-09T09:09:38.133Z,19.20
2023-06-09T09:10:38.196Z,19.21
2023-06-09T09:11:38.261Z,19.25
2023-06-09T09:12:38.329Z,19.28
2023-06-09T09:18:57.994Z,19.29
2023-06-09T09:19:58.129Z,19.29
2023-06-09T09:20:58.348Z,19.32
2023-06-09T09:21:58.107Z,19.33
2023-06-09T09:22:58.198Z,19.36
2023-06-09T09:23:58.450Z,19.36
2023-06-09T09:24:58.399Z,19.39
2023-06-09T09:25:58.477Z,19.42
2023-06-09T09:26:58.555Z,19.43
2023-06-09T09:27:58.600Z,19.47
2023-06-09T09:28:58.742Z,19.50
2023-06-09T09:29:58.755Z,19.53
2023-06-09T09:30:58.918Z,19.54
2023-06-09T09:31:58.938Z,19.57
2023-06-09T09:32:59.064Z,19.60
2023-06-09T09:33:59.133Z,19.65
2023-06-09T09:34:59.197Z,19.66
2023-06-09T09:35:59.266Z,19.69
2023-06-09T09:36:59.347Z,19.70
2023-06-09T09:37:59.616Z,19.72
2023-06-09T09:38:59.513Z,19.73
2023-06-09T09:39:59.552Z,19.78
2023-06-09T09:40:59.639Z,19.79
2023-06-09T09:41:59.724Z,19.80
2023-06-09T09:42:59.834Z,19.83
2023-06-09T09:43:59.948Z,19.86
2023-06-09T09:44:59.987Z,19.88
2023-06-09T09:46:00.104Z,19.93
2023-06-09T09:47:00.275Z,19.97
2023-06-09T09:48:00.382Z,20.00
2023-06-09T09:49:00.400Z,20.03
2023-06-09T09:50:00.453Z,20.08
2023-06-09T09:51:00.564Z,20.09
2023-06-09T09:52:00.626Z,20.12
2023-06-09T09:53:00.715Z,20.15
2023-06-09T09:54:00.789Z,20.15
2023-06-09T09:55:00.846Z,20.16
2023-06-09T09:56:00.930Z,20.18
2023-06-09T09:57:01.037Z,20.18
2023-06-09T09:58:01.098Z,20.21
2023-06-09T09:59:01.210Z,20.23
2023-06-09T10:00:01.301Z,20.24
2023-06-09T10:01:01.494Z,20.27
2023-06-09T10:02:01.460Z,20.28
2023-06-09T10:03:01.676Z,20.30
2023-06-09T10:04:01.702Z,20.31
2023-06-09T10:05:01.722Z,20.33
2023-06-09T10:06:01.855Z,20.33
2023-06-09T10:07:01.888Z,20.33
2023-06-09T10:08:01.990Z,20.33
2023-06-09T10:09:02.072Z,20.31
2023-06-09T10:10:02.129Z,20.31
2023-06-09T10:11:02.335Z,20.30
2023-06-09T10:14:00.777Z,20.28
2023-06-09T10:14:40.884Z,20.30
2023-06-09T10:15:40.694Z,20.31
2023-06-09T10:16:40.548Z,20.34
2023-06-09T10:17:40.596Z,20.38
2023-06-09T10:18:40.667Z,20.35
2023-06-09T10:19:40.778Z,20.35
2023-06-09T10:20:40.823Z,20.39
2023-06-09T10:21:40.916Z,20.41
2023-06-09T10:22:41.001Z,20.43
2023-06-09T10:23:41.169Z,20.43
2023-06-09T10:24:41.197Z,20.43
2023-06-09T10:25:41.271Z,20.47
2023-06-09T10:26:41.317Z,20.46
2023-06-09T10:27:41.412Z,20.49
2023-06-09T10:30:27.949Z,20.46
2023-06-09T10:31:28.954Z,20.43
2023-06-09T10:32:29.057Z,20.43
2023-06-09T10:33:29.070Z,20.43
2023-06-09T10:34:29.159Z,20.47
2023-06-09T10:35:29.197Z,20.50
2023-06-09T10:36:29.258Z,20.53
2023-06-09T10:37:29.361Z,20.56
2023-06-09T10:38:29.465Z,20.59
2023-06-09T10:39:29.570Z,20.62
2023-06-09T10:40:29.637Z,20.65
2023-06-09T10:41:29.770Z,20.68
2023-06-09T10:42:29.762Z,20.69
2023-06-09T10:43:29.848Z,20.74
2023-06-09T10:44:29.943Z,20.76
2023-06-09T10:45:30.100Z,20.79
2023-06-09T10:46:30.183Z,20.81
2023-06-09T10:47:30.298Z,20.83
2023-06-09T10:48:30.301Z,20.84
2023-06-09T10:49:30.388Z,20.83
2023-06-09T10:50:30.489Z,20.81
2023-06-09T10:51:30.529Z,20.83
2023-06-09T10:52:30.633Z,20.84
2023-06-09T10:53:30.750Z,20.86
2023-06-09T10:54:30.807Z,20.87
2023-06-09T10:55:30.926Z,20.87
2023-06-09T10:56:30.987Z,20.90
2023-06-09T10:57:31.077Z,20.93
2023-06-09T10:58:31.176Z,20.96
2023-06-09T10:59:31.333Z,20.99
2023-06-09T11:00:31.416Z,21.04
2023-06-09T11:01:31.453Z,21.06
2023-06-09T11:02:31.520Z,21.11
2023-06-09T11:03:31.660Z,21.14
2023-06-09T11:04:31.670Z,21.19
2023-06-09T11:05:31.778Z,21.21
2023-06-09T11:06:31.846Z,21.26
2023-06-09T11:07:31.903Z,21.29
2023-06-09T11:08:32.006Z,21.30
2023-06-09T11:09:32.623Z,21.32
2023-06-09T11:10:32.200Z,21.36
2023-06-09T11:11:32.249Z,21.38
2023-06-09T11:12:32.352Z,21.38
2023-06-09T11:13:32.395Z,21.39
2023-06-09T11:14:33.126Z,21.44
2023-06-09T11:15:32.587Z,21.45
2023-06-09T11:16:32.644Z,21.51
2023-06-09T11:17:32.784Z,21.54
2023-06-09T11:18:33.592Z,21.57
2023-06-09T11:19:32.899Z,21.61
2023-06-09T11:20:33.017Z,21.63
2023-06-09T11:21:33.072Z,21.64
2023-06-09T11:22:33.193Z,21.69
2023-06-09T11:23:33.269Z,21.72
2023-06-09T11:24:33.357Z,21.74
2023-06-09T11:25:33.427Z,21.76
2023-06-09T11:26:33.484Z,21.79
2023-06-09T11:27:33.573Z,21.81
2023-06-09T11:28:33.683Z,21.82
2023-06-09T11:29:33.749Z,21.81
2023-06-09T11:30:33.873Z,21.82
2023-06-09T11:31:33.951Z,21.82
2023-06-09T11:32:34.053Z,21.83
2023-06-09T11:33:34.060Z,21.81
2023-06-09T11:34:34.154Z,21.82
2023-06-09T11:35:34.262Z,21.83
2023-06-09T11:36:34.328Z,21.83
2023-06-09T11:37:34.400Z,21.85
2023-06-09T11:38:34.454Z,21.88
2023-06-09T11:39:34.545Z,21.88
2023-06-09T11:40:34.662Z,21.85
2023-06-09T11:41:34.721Z,21.83
2023-06-09T11:42:34.835Z,21.83
2023-06-09T11:43:34.890Z,21.85
2023-06-09T11:44:34.986Z,21.85
2023-06-09T11:45:35.084Z,21.90
2023-06-09T11:46:35.237Z,21.92
2023-06-09T11:47:35.294Z,21.97
2023-06-09T11:48:35.350Z,21.98
2023-06-09T11:49:35.428Z,22.01
2023-06-09T11:50:35.526Z,22.01
2023-06-09T11:51:35.630Z,22.02
2023-06-09T11:52:35.762Z,22.02
2023-06-09T11:53:35.836Z,22.06
2023-06-09T11:54:35.969Z,22.07
2023-06-09T11:55:35.967Z,22.07
2023-06-09T11:56:36.066Z,22.06
2023-06-09T11:57:36.105Z,22.07
2023-06-09T11:58:36.228Z,22.07
2023-06-09T11:59:45.600Z,22.10
2023-06-09T12:00:36.404Z,22.12
2023-06-09T12:01:36.583Z,22.13
2023-06-09T12:02:36.737Z,22.14
2023-06-09T12:03:36.715Z,22.16
2023-06-09T12:04:36.706Z,22.19
2023-06-09T12:15:58.406Z,21.92
2023-06-09T12:16:59.477Z,21.92
2023-06-09T12:17:59.590Z,21.94
2023-06-09T12:18:59.649Z,21.97
2023-06-09T12:19:59.629Z,22.01
2023-06-09T12:20:59.713Z,22.07
2023-06-09T12:21:59.850Z,22.13
2023-06-09T12:23:02.225Z,22.17
2023-06-09T12:24:00.024Z,22.22
2023-06-09T12:25:00.074Z,22.23
2023-06-09T12:26:00.164Z,22.27
2023-06-09T12:27:00.198Z,22.28
2023-06-09T12:28:00.297Z,22.32
2023-06-09T12:29:00.382Z,22.35
2023-06-09T12:30:00.512Z,22.38
2023-06-09T12:31:00.550Z,22.43
2023-06-09T12:32:00.705Z,22.44
2023-06-09T12:33:00.827Z,22.46
2023-06-09T12:34:00.819Z,22.49
2023-06-09T12:35:00.895Z,22.50
2023-06-09T12:36:00.951Z,22.52
2023-06-09T12:37:01.045Z,22.52
2023-06-09T12:38:01.134Z,22.52
2023-06-09T12:39:01.244Z,22.52
2023-06-09T12:40:01.338Z,22.54
2023-06-09T12:41:01.395Z,22.56
2023-06-09T12:42:01.502Z,22.60
2023-06-09T12:43:01.550Z,22.65
2023-06-09T12:44:01.659Z,22.69
2023-06-09T12:45:01.769Z,22.72
2023-06-09T12:46:01.860Z,22.78
2023-06-09T12:47:01.907Z,22.82
2023-06-09T12:48:02.080Z,22.86
2023-06-09T12:49:02.101Z,22.89
2023-06-09T12:50:02.236Z,22.94
2023-06-09T12:51:02.246Z,22.99
2023-06-09T12:52:02.489Z,23.02
2023-06-09T12:53:02.407Z,23.05
2023-06-09T12:54:02.504Z,23.08
2023-06-09T12:55:13.475Z,23.11
2023-06-09T12:56:02.676Z,23.12
2023-06-09T12:57:02.766Z,23.15
2023-06-09T12:58:02.850Z,23.15
2023-06-09T12:59:02.939Z,23.14
2023-06-09T13:00:19.917Z,23.12
2023-06-09T13:01:03.179Z,23.14
2023-06-09T13:02:03.250Z,23.17
2023-06-09T13:03:04.642Z,23.20
2023-06-09T13:04:03.507Z,23.23
2023-06-09T13:05:03.452Z,23.26
2023-06-09T13:06:03.506Z,23.29
2023-06-09T13:07:03.596Z,23.32
2023-06-09T13:08:03.715Z,23.35
2023-06-09T13:09:03.779Z,23.38
2023-06-09T13:10:03.894Z,23.40
2023-06-09T13:11:03.965Z,23.45
2023-06-09T13:12:04.069Z,23.46
2023-06-09T13:13:04.121Z,23.47
2023-06-09T13:14:04.223Z,23.50
2023-06-09T13:15:04.321Z,23.53
2023-06-09T13:16:04.384Z,23.57
2023-06-09T13:17:04.495Z,23.57
2023-06-09T13:18:04.703Z,23.53
2023-06-09T13:19:04.640Z,23.52
2023-06-09T13:20:04.911Z,23.52
2023-06-09T13:21:04.748Z,23.52
2023-06-09T13:22:04.830Z,23.57
2023-06-09T13:23:04.921Z,23.57
2023-06-09T13:24:05.125Z,23.62
2023-06-09T13:25:05.100Z,23.65
2023-06-09T13:26:05.173Z,23.68
2023-06-09T13:27:05.242Z,23.70
2023-06-09T13:28:05.388Z,23.70
2023-06-09T13:29:05.493Z,23.68
2023-06-09T13:30:05.766Z,23.70
2023-06-09T13:31:05.613Z,23.68
2023-06-09T13:32:05.642Z,23.68
2023-06-09T13:33:05.787Z,23.67
2023-06-09T13:34:05.833Z,23.64
2023-06-09T13:35:06.231Z,23.62
2023-06-09T13:36:06.024Z,23.61
2023-06-09T13:37:06.054Z,23.60
2023-06-09T13:38:06.149Z,23.58
2023-06-09T13:39:06.236Z,23.58
2023-06-09T13:40:06.361Z,23.57
2023-06-09T13:41:06.426Z,23.57
2023-06-09T13:42:06.524Z,23.55
2023-06-09T13:43:06.608Z,23.55
2023-06-09T13:44:06.687Z,23.57
2023-06-09T13:45:07.224Z,23.58
2023-06-09T13:46:06.860Z,23.60
2023-06-09T13:47:06.944Z,23.64
2023-06-09T13:48:07.067Z,23.62
2023-06-09T13:49:07.399Z,23.65
2023-06-09T13:50:07.239Z,23.67
2023-06-09T13:51:07.265Z,23.70
2023-06-09T13:52:07.363Z,23.71
2023-06-09T13:53:07.455Z,23.72
2023-06-09T13:54:07.549Z,23.77
2023-06-09T13:55:07.992Z,23.80
2023-06-09T13:56:07.706Z,23.83
2023-06-09T13:57:10.955Z,23.87
2023-06-09T13:58:07.871Z,23.89
2023-06-09T13:59:08.033Z,23.90
2023-06-09T14:00:08.063Z,23.94
2023-06-09T14:01:08.108Z,23.94
2023-06-09T14:02:08.302Z,23.95
2023-06-09T14:03:08.399Z,23.98
2023-06-09T14:04:08.463Z,24.01
2023-06-09T14:05:08.772Z,24.04
2023-06-09T14:06:09.273Z,24.05
2023-06-09T14:07:08.594Z,24.04
2023-06-09T14:08:08.674Z,24.04
2023-06-09T14:09:10.153Z,24.04
2023-06-09T14:10:08.873Z,24.04
2023-06-09T14:11:08.949Z,24.05
2023-06-09T14:12:10.408Z,24.04
2023-06-09T14:13:09.082Z,24.05
2023-06-09T14:14:09.178Z,24.07
2023-06-09T14:15:09.487Z,24.08
2023-06-09T14:16:09.376Z,24.08
2023-06-09T14:17:09.580Z,24.07
2023-06-09T14:18:09.545Z,24.07
2023-06-09T14:19:09.630Z,24.08
2023-06-09T14:20:09.746Z,24.12
2023-06-09T14:21:09.799Z,24.12
2023-06-09T14:22:09.895Z,24.13
2023-06-09T14:23:10.075Z,24.16
2023-06-09T14:24:10.176Z,24.17
2023-06-09T14:25:10.204Z,24.20
2023-06-09T14:26:10.246Z,24.20
2023-06-09T14:27:10.328Z,24.23
2023-06-09T14:28:10.455Z,24.23
2023-06-09T14:29:10.509Z,24.22
2023-06-09T14:30:10.578Z,24.22
2023-06-09T14:31:10.653Z,24.20
2023-06-09T14:32:10.779Z,24.20
2023-06-09T14:33:10.884Z,24.22
2023-06-09T14:34:10.898Z,24.23
2023-06-09T14:35:11.002Z,24.22
2023-06-09T14:36:11.066Z,24.23
2023-06-09T14:37:11.121Z,24.23
2023-06-09T14:38:11.219Z,24.24
2023-06-09T14:39:11.270Z,24.24
2023-06-09T14:40:11.377Z,24.24
2023-06-09T14:41:12.833Z,24.26
2023-06-09T14:42:11.532Z,24.23
2023-06-09T14:43:11.595Z,24.24
2023-06-09T14:44:11.681Z,24.24
2023-06-09T14:45:11.796Z,24.24
2023-06-09T14:46:11.879Z,24.24
2023-06-09T14:47:11.927Z,24.27
2023-06-09T14:48:12.113Z,24.26
2023-06-09T14:49:12.078Z,24.29
2023-06-09T14:50:12.193Z,24.27
2023-06-09T14:51:12.247Z,24.27
2023-06-09T14:52:12.337Z,24.27
2023-06-09T14:53:12.432Z,24.27
2023-06-09T14:54:12.542Z,24.29
2023-06-09T14:55:12.599Z,24.31
2023-06-09T14:56:12.653Z,24.34
2023-06-09T14:57:12.740Z,24.34
2023-06-09T14:58:12.836Z,24.37